sensor_id;sensor_type;location;lat;lon;timestamp;temperature;humidity
11239;DHT22;5677;48.488;13.436;2023-02-15T00:01:18;11.30;40.30
11239;DHT22;5677;48.488;13.436;2023-02-15T00:03:47;11.30;40.30
11239;DHT22;5677;48.488;13.436;2023-02-15T00:06:15;11.30;40.20
11239;DHT22;5677;48.488;13.436;2023-02-15T00:08:42;11.30;40.20
11239;DHT22;5677;48.488;13.436;2023-02-15T00:11:11;11.30;40.20
11239;DHT22;5677;48.488;13.436;2023-02-15T00:13:38;11.30;40.20
11239;DHT22;5677;48.488;13.436;2023-02-15T00:16:09;11.30;40.20
11239;DHT22;5677;48.488;13.436;2023-02-15T00:18:37;11.30;40.20
11239;DHT22;5677;48.488;13.436;2023-02-15T00:21:08;11.30;40.20
11239;DHT22;5677;48.488;13.436;2023-02-15T00:23:36;11.30;40.30
11239;DHT22;5677;48.488;13.436;2023-02-15T00:26:04;11.30;40.20
11239;DHT22;5677;48.488;13.436;2023-02-15T00:28:31;11.30;40.30
11239;DHT22;5677;48.488;13.436;2023-02-15T00:31:03;11.30;40.30
11239;DHT22;5677;48.488;13.436;2023-02-15T00:33:30;11.30;40.30
11239;DHT22;5677;48.488;13.436;2023-02-15T00:35:57;11.30;40.30
11239;DHT22;5677;48.488;13.436;2023-02-15T00:38:26;11.30;40.30
11239;DHT22;5677;48.488;13.436;2023-02-15T00:40:53;11.30;40.30
11239;DHT22;5677;48.488;13.436;2023-02-15T00:43:20;11.30;40.30
11239;DHT22;5677;48.488;13.436;2023-02-15T00:45:47;11.30;40.30
11239;DHT22;5677;48.488;13.436;2023-02-15T00:48:14;11.30;40.30
11239;DHT22;5677;48.488;13.436;2023-02-15T00:50:40;11.30;40.30
11239;DHT22;5677;48.488;13.436;2023-02-15T00:53:07;11.30;40.30
11239;DHT22;5677;48.488;13.436;2023-02-15T00:55:35;11.30;40.20
11239;DHT22;5677;48.488;13.436;2023-02-15T00:58:04;11.30;40.20
11239;DHT22;5677;48.488;13.436;2023-02-15T01:00:31;11.30;40.10
11239;DHT22;5677;48.488;13.436;2023-02-15T01:02:58;11.30;40.20
11239;DHT22;5677;48.488;13.436;2023-02-15T01:05:24;11.30;40.20
11239;DHT22;5677;48.488;13.436;2023-02-15T01:07:51;11.30;40.20
11239;DHT22;5677;48.488;13.436;2023-02-15T01:10:18;11.30;40.20
11239;DHT22;5677;48.488;13.436;2023-02-15T01:12:46;11.30;40.20
11239;DHT22;5677;48.488;13.436;2023-02-15T01:15:13;11.30;40.20
11239;DHT22;5677;48.488;13.436;2023-02-15T01:17:40;11.30;40.30
11239;DHT22;5677;48.488;13.436;2023-02-15T01:20:08;11.30;40.30
11239;DHT22;5677;48.488;13.436;2023-02-15T01:22:35;11.30;40.30
11239;DHT22;5677;48.488;13.436;2023-02-15T01:25:01;11.30;40.30
11239;DHT22;5677;48.488;13.436;2023-02-15T01:27:28;11.30;40.30
11239;DHT22;5677;48.488;13.436;2023-02-15T01:29:57;11.30;40.30
11239;DHT22;5677;48.488;13.436;2023-02-15T01:32:24;11.30;40.30
11239;DHT22;5677;48.488;13.436;2023-02-15T01:34:52;11.30;40.30
11239;DHT22;5677;48.488;13.436;2023-02-15T01:37:18;11.20;40.20
11239;DHT22;5677;48.488;13.436;2023-02-15T01:39:45;11.30;40.40
11239;DHT22;5677;48.488;13.436;2023-02-15T01:42:12;11.30;40.40
11239;DHT22;5677;48.488;13.436;2023-02-15T01:44:53;11.30;40.40
11239;DHT22;5677;48.488;13.436;2023-02-15T01:47:29;11.30;40.30
11239;DHT22;5677;48.488;13.436;2023-02-15T01:50:02;11.30;40.30
11239;DHT22;5677;48.488;13.436;2023-02-15T01:52:32;11.30;40.30
11239;DHT22;5677;48.488;13.436;2023-02-15T01:54:59;11.20;40.30
11239;DHT22;5677;48.488;13.436;2023-02-15T01:57:28;11.30;40.40
11239;DHT22;5677;48.488;13.436;2023-02-15T01:59:59;11.30;40.40
11239;DHT22;5677;48.488;13.436;2023-02-15T02:02:28;11.30;40.30
11239;DHT22;5677;48.488;13.436;2023-02-15T02:04:59;11.30;40.30
11239;DHT22;5677;48.488;13.436;2023-02-15T02:07:33;11.30;40.40
11239;DHT22;5677;48.488;13.436;2023-02-15T02:10:02;11.30;40.40
11239;DHT22;5677;48.488;13.436;2023-02-15T02:12:29;11.20;40.20
11239;DHT22;5677;48.488;13.436;2023-02-15T02:14:56;11.20;40.20
11239;DHT22;5677;48.488;13.436;2023-02-15T02:17:31;11.30;40.40
11239;DHT22;5677;48.488;13.436;2023-02-15T02:20:37;11.30;40.40
11239;DHT22;5677;48.488;13.436;2023-02-15T02:23:33;11.20;40.20
11239;DHT22;5677;48.488;13.436;2023-02-15T02:29:29;11.20;40.30
11239;DHT22;5677;48.488;13.436;2023-02-15T02:32:31;11.30;40.40
11239;DHT22;5677;48.488;13.436;2023-02-15T02:35:07;11.20;40.30
11239;DHT22;5677;48.488;13.436;2023-02-15T02:37:40;11.20;40.30
11239;DHT22;5677;48.488;13.436;2023-02-15T02:40:16;11.30;40.40
11239;DHT22;5677;48.488;13.436;2023-02-15T02:42:49;11.30;40.40
11239;DHT22;5677;48.488;13.436;2023-02-15T02:45:24;11.20;40.30
11239;DHT22;5677;48.488;13.436;2023-02-15T02:47:55;11.20;40.30
11239;DHT22;5677;48.488;13.436;2023-02-15T02:50:27;11.20;40.30
11239;DHT22;5677;48.488;13.436;2023-02-15T02:52:55;11.20;40.20
11239;DHT22;5677;48.488;13.436;2023-02-15T02:55:25;11.30;40.40
11239;DHT22;5677;48.488;13.436;2023-02-15T02:57:55;11.30;40.40
11239;DHT22;5677;48.488;13.436;2023-02-15T03:00:25;11.30;40.30
11239;DHT22;5677;48.488;13.436;2023-02-15T03:03:01;11.20;40.20
11239;DHT22;5677;48.488;13.436;2023-02-15T03:05:33;11.20;40.30
11239;DHT22;5677;48.488;13.436;2023-02-15T03:08:02;11.20;40.30
11239;DHT22;5677;48.488;13.436;2023-02-15T03:10:33;11.20;40.30
11239;DHT22;5677;48.488;13.436;2023-02-15T03:13:00;11.30;40.40
11239;DHT22;5677;48.488;13.436;2023-02-15T03:15:30;11.20;40.30
11239;DHT22;5677;48.488;13.436;2023-02-15T03:18:22;11.20;40.30
11239;DHT22;5677;48.488;13.436;2023-02-15T03:20:52;11.30;40.40
11239;DHT22;5677;48.488;13.436;2023-02-15T03:23:22;11.20;40.30
11239;DHT22;5677;48.488;13.436;2023-02-15T03:25:54;11.30;40.40
11239;DHT22;5677;48.488;13.436;2023-02-15T03:28:25;11.20;40.30
11239;DHT22;5677;48.488;13.436;2023-02-15T03:30:55;11.20;40.30
11239;DHT22;5677;48.488;13.436;2023-02-15T03:33:23;11.20;40.30
11239;DHT22;5677;48.488;13.436;2023-02-15T03:35:54;11.20;40.30
11239;DHT22;5677;48.488;13.436;2023-02-15T03:38:28;11.20;40.30
11239;DHT22;5677;48.488;13.436;2023-02-15T03:40:58;11.20;40.30
11239;DHT22;5677;48.488;13.436;2023-02-15T03:43:44;11.20;40.30
11239;DHT22;5677;48.488;13.436;2023-02-15T03:46:15;11.20;40.30
11239;DHT22;5677;48.488;13.436;2023-02-15T03:48:47;11.20;40.30
11239;DHT22;5677;48.488;13.436;2023-02-15T03:51:20;11.20;40.30
11239;DHT22;5677;48.488;13.436;2023-02-15T03:54:01;11.20;40.30
11239;DHT22;5677;48.488;13.436;2023-02-15T03:56:28;11.20;40.20
11239;DHT22;5677;48.488;13.436;2023-02-15T03:58:55;11.20;40.20
11239;DHT22;5677;48.488;13.436;2023-02-15T04:01:42;11.20;40.40
11239;DHT22;5677;48.488;13.436;2023-02-15T04:04:26;11.20;40.20
11239;DHT22;5677;48.488;13.436;2023-02-15T04:06:56;11.20;40.20
11239;DHT22;5677;48.488;13.436;2023-02-15T04:09:23;11.20;40.30
11239;DHT22;5677;48.488;13.436;2023-02-15T04:12:07;11.20;40.30
11239;DHT22;5677;48.488;13.436;2023-02-15T04:14:33;11.20;40.30
11239;DHT22;5677;48.488;13.436;2023-02-15T04:17:18;11.20;40.30
11239;DHT22;5677;48.488;13.436;2023-02-15T04:19:45;11.20;40.30
11239;DHT22;5677;48.488;13.436;2023-02-15T04:22:30;11.20;40.30
11239;DHT22;5677;48.488;13.436;2023-02-15T04:25:14;11.20;40.30
11239;DHT22;5677;48.488;13.436;2023-02-15T04:27:43;11.20;40.40
11239;DHT22;5677;48.488;13.436;2023-02-15T04:30:12;11.20;40.40
11239;DHT22;5677;48.488;13.436;2023-02-15T04:32:39;11.20;41.10
11239;DHT22;5677;48.488;13.436;2023-02-15T04:35:07;11.20;40.40
11239;DHT22;5677;48.488;13.436;2023-02-15T04:37:35;11.20;40.50
11239;DHT22;5677;48.488;13.436;2023-02-15T04:40:03;11.20;40.40
11239;DHT22;5677;48.488;13.436;2023-02-15T04:42:30;11.20;40.40
11239;DHT22;5677;48.488;13.436;2023-02-15T04:44:57;11.20;40.40
11239;DHT22;5677;48.488;13.436;2023-02-15T04:47:24;11.20;40.40
11239;DHT22;5677;48.488;13.436;2023-02-15T04:49:51;11.20;40.30
11239;DHT22;5677;48.488;13.436;2023-02-15T04:52:18;11.20;40.40
11239;DHT22;5677;48.488;13.436;2023-02-15T04:54:46;11.20;40.40
11239;DHT22;5677;48.488;13.436;2023-02-15T04:57:13;11.20;40.30
11239;DHT22;5677;48.488;13.436;2023-02-15T04:59:39;11.20;40.30
11239;DHT22;5677;48.488;13.436;2023-02-15T05:02:06;11.20;40.30
11239;DHT22;5677;48.488;13.436;2023-02-15T05:04:34;11.20;40.40
11239;DHT22;5677;48.488;13.436;2023-02-15T05:07:01;11.20;40.30
11239;DHT22;5677;48.488;13.436;2023-02-15T05:09:27;11.20;40.30
11239;DHT22;5677;48.488;13.436;2023-02-15T05:11:55;11.20;40.30
11239;DHT22;5677;48.488;13.436;2023-02-15T05:14:22;11.20;40.40
11239;DHT22;5677;48.488;13.436;2023-02-15T05:16:49;11.20;40.40
11239;DHT22;5677;48.488;13.436;2023-02-15T05:19:16;11.20;40.40
11239;DHT22;5677;48.488;13.436;2023-02-15T05:21:42;11.20;40.40
11239;DHT22;5677;48.488;13.436;2023-02-15T05:24:09;11.20;40.50
11239;DHT22;5677;48.488;13.436;2023-02-15T05:26:50;11.20;40.40
11239;DHT22;5677;48.488;13.436;2023-02-15T05:29:35;11.20;40.60
11239;DHT22;5677;48.488;13.436;2023-02-15T05:32:02;11.20;40.50
11239;DHT22;5677;48.488;13.436;2023-02-15T05:34:29;11.20;40.50
11239;DHT22;5677;48.488;13.436;2023-02-15T05:36:56;11.20;40.50
11239;DHT22;5677;48.488;13.436;2023-02-15T05:39:23;11.20;40.50
11239;DHT22;5677;48.488;13.436;2023-02-15T05:41:50;11.20;40.60
11239;DHT22;5677;48.488;13.436;2023-02-15T05:44:16;11.20;40.60
11239;DHT22;5677;48.488;13.436;2023-02-15T05:46:44;11.20;40.50
11239;DHT22;5677;48.488;13.436;2023-02-15T05:49:11;11.20;40.50
11239;DHT22;5677;48.488;13.436;2023-02-15T05:51:38;11.20;40.60
11239;DHT22;5677;48.488;13.436;2023-02-15T05:54:05;11.20;40.50
11239;DHT22;5677;48.488;13.436;2023-02-15T05:56:31;11.20;40.50
11239;DHT22;5677;48.488;13.436;2023-02-15T05:58:58;11.20;40.30
11239;DHT22;5677;48.488;13.436;2023-02-15T06:01:25;11.20;40.50
11239;DHT22;5677;48.488;13.436;2023-02-15T06:03:53;11.20;40.40
11239;DHT22;5677;48.488;13.436;2023-02-15T06:06:21;11.20;40.50
11239;DHT22;5677;48.488;13.436;2023-02-15T06:08:48;11.10;40.50
11239;DHT22;5677;48.488;13.436;2023-02-15T06:11:15;11.20;40.50
11239;DHT22;5677;48.488;13.436;2023-02-15T06:13:41;11.20;40.60
11239;DHT22;5677;48.488;13.436;2023-02-15T06:16:08;11.20;40.60
11239;DHT22;5677;48.488;13.436;2023-02-15T06:18:35;11.20;40.60
11239;DHT22;5677;48.488;13.436;2023-02-15T06:21:03;11.20;40.60
11239;DHT22;5677;48.488;13.436;2023-02-15T06:23:30;11.20;40.70
11239;DHT22;5677;48.488;13.436;2023-02-15T06:25:57;11.20;40.60
11239;DHT22;5677;48.488;13.436;2023-02-15T06:28:23;11.20;40.60
11239;DHT22;5677;48.488;13.436;2023-02-15T06:30:51;11.10;40.70
11239;DHT22;5677;48.488;13.436;2023-02-15T06:33:18;11.20;40.60
11239;DHT22;5677;48.488;13.436;2023-02-15T06:35:45;11.20;40.70
11239;DHT22;5677;48.488;13.436;2023-02-15T06:38:13;11.20;40.70
11239;DHT22;5677;48.488;13.436;2023-02-15T06:40:40;11.20;40.70
11239;DHT22;5677;48.488;13.436;2023-02-15T06:43:07;11.10;40.70
11239;DHT22;5677;48.488;13.436;2023-02-15T06:45:34;11.10;40.70
11239;DHT22;5677;48.488;13.436;2023-02-15T06:48:00;11.10;40.80
11239;DHT22;5677;48.488;13.436;2023-02-15T06:50:27;11.10;40.70
11239;DHT22;5677;48.488;13.436;2023-02-15T06:52:56;11.20;40.80
11239;DHT22;5677;48.488;13.436;2023-02-15T06:55:24;11.20;40.70
11239;DHT22;5677;48.488;13.436;2023-02-15T06:57:51;11.10;40.70
11239;DHT22;5677;48.488;13.436;2023-02-15T07:00:18;11.20;40.60
11239;DHT22;5677;48.488;13.436;2023-02-15T07:02:47;11.10;40.60
11239;DHT22;5677;48.488;13.436;2023-02-15T07:05:14;11.20;40.70
11239;DHT22;5677;48.488;13.436;2023-02-15T07:07:41;11.20;40.70
11239;DHT22;5677;48.488;13.436;2023-02-15T07:10:08;11.20;40.60
11239;DHT22;5677;48.488;13.436;2023-02-15T07:12:36;11.10;40.70
11239;DHT22;5677;48.488;13.436;2023-02-15T07:15:08;11.20;40.60
11239;DHT22;5677;48.488;13.436;2023-02-15T07:17:35;11.10;40.70
11239;DHT22;5677;48.488;13.436;2023-02-15T07:20:03;11.20;40.70
11239;DHT22;5677;48.488;13.436;2023-02-15T07:22:30;11.10;40.60
11239;DHT22;5677;48.488;13.436;2023-02-15T07:24:59;11.10;40.70
11239;DHT22;5677;48.488;13.436;2023-02-15T07:27:26;11.10;40.70
11239;DHT22;5677;48.488;13.436;2023-02-15T07:29:54;11.10;40.70
11239;DHT22;5677;48.488;13.436;2023-02-15T07:32:20;11.10;40.70
11239;DHT22;5677;48.488;13.436;2023-02-15T07:34:47;11.10;40.70
11239;DHT22;5677;48.488;13.436;2023-02-15T07:37:14;11.10;40.80
11239;DHT22;5677;48.488;13.436;2023-02-15T07:39:40;11.10;40.80
11239;DHT22;5677;48.488;13.436;2023-02-15T07:42:07;11.10;40.80
11239;DHT22;5677;48.488;13.436;2023-02-15T07:44:34;11.10;40.80
11239;DHT22;5677;48.488;13.436;2023-02-15T07:47:02;11.10;40.90
11239;DHT22;5677;48.488;13.436;2023-02-15T07:49:29;11.10;40.80
11239;DHT22;5677;48.488;13.436;2023-02-15T07:51:55;11.10;40.80
11239;DHT22;5677;48.488;13.436;2023-02-15T07:54:22;11.10;40.90
11239;DHT22;5677;48.488;13.436;2023-02-15T07:56:49;11.10;40.90
11239;DHT22;5677;48.488;13.436;2023-02-15T07:59:16;11.10;40.80
11239;DHT22;5677;48.488;13.436;2023-02-15T08:01:42;11.10;40.90
11239;DHT22;5677;48.488;13.436;2023-02-15T08:04:10;11.10;40.90
11239;DHT22;5677;48.488;13.436;2023-02-15T08:06:38;11.10;40.70
11239;DHT22;5677;48.488;13.436;2023-02-15T08:09:05;11.10;40.70
11239;DHT22;5677;48.488;13.436;2023-02-15T08:11:32;11.10;40.70
11239;DHT22;5677;48.488;13.436;2023-02-15T08:14:04;11.10;40.70
11239;DHT22;5677;48.488;13.436;2023-02-15T08:16:34;11.10;40.80
11239;DHT22;5677;48.488;13.436;2023-02-15T08:19:03;11.10;40.80
11239;DHT22;5677;48.488;13.436;2023-02-15T08:21:32;11.20;40.90
11239;DHT22;5677;48.488;13.436;2023-02-15T08:23:59;11.10;40.70
11239;DHT22;5677;48.488;13.436;2023-02-15T08:26:28;11.10;40.80
11239;DHT22;5677;48.488;13.436;2023-02-15T08:28:55;11.10;40.80
11239;DHT22;5677;48.488;13.436;2023-02-15T08:31:22;11.10;40.80
11239;DHT22;5677;48.488;13.436;2023-02-15T08:33:50;11.10;40.80
11239;DHT22;5677;48.488;13.436;2023-02-15T08:36:19;11.10;40.80
11239;DHT22;5677;48.488;13.436;2023-02-15T08:38:48;11.10;41.10
11239;DHT22;5677;48.488;13.436;2023-02-15T08:41:16;11.10;40.90
11239;DHT22;5677;48.488;13.436;2023-02-15T08:43:45;11.10;40.80
11239;DHT22;5677;48.488;13.436;2023-02-15T08:46:13;11.10;40.90
11239;DHT22;5677;48.488;13.436;2023-02-15T08:48:40;11.10;40.90
11239;DHT22;5677;48.488;13.436;2023-02-15T08:51:09;11.10;40.90
11239;DHT22;5677;48.488;13.436;2023-02-15T08:53:37;11.10;41.00
11239;DHT22;5677;48.488;13.436;2023-02-15T08:56:06;11.10;40.90
11239;DHT22;5677;48.488;13.436;2023-02-15T08:58:35;11.10;41.00
11239;DHT22;5677;48.488;13.436;2023-02-15T09:01:08;11.10;40.90
11239;DHT22;5677;48.488;13.436;2023-02-15T09:03:35;11.10;40.90
11239;DHT22;5677;48.488;13.436;2023-02-15T09:06:02;11.10;41.00
11239;DHT22;5677;48.488;13.436;2023-02-15T09:08:29;11.10;41.00
11239;DHT22;5677;48.488;13.436;2023-02-15T09:11:09;11.10;40.90
11239;DHT22;5677;48.488;13.436;2023-02-15T09:13:37;11.10;40.90
11239;DHT22;5677;48.488;13.436;2023-02-15T09:16:07;11.10;40.90
11239;DHT22;5677;48.488;13.436;2023-02-15T09:18:36;11.20;40.90
11239;DHT22;5677;48.488;13.436;2023-02-15T09:21:08;11.10;40.90
11239;DHT22;5677;48.488;13.436;2023-02-15T09:23:35;11.10;40.90
11239;DHT22;5677;48.488;13.436;2023-02-15T09:26:04;11.20;40.90
11239;DHT22;5677;48.488;13.436;2023-02-15T09:28:32;11.10;40.90
11239;DHT22;5677;48.488;13.436;2023-02-15T09:31:09;11.10;40.90
11239;DHT22;5677;48.488;13.436;2023-02-15T09:33:37;11.10;40.90
11239;DHT22;5677;48.488;13.436;2023-02-15T09:36:04;11.10;40.90
11239;DHT22;5677;48.488;13.436;2023-02-15T09:38:31;11.10;40.90
11239;DHT22;5677;48.488;13.436;2023-02-15T09:41:11;11.10;40.90
11239;DHT22;5677;48.488;13.436;2023-02-15T09:43:49;11.10;40.90
11239;DHT22;5677;48.488;13.436;2023-02-15T09:46:38;11.20;40.90
11239;DHT22;5677;48.488;13.436;2023-02-15T09:49:12;11.10;40.90
11239;DHT22;5677;48.488;13.436;2023-02-15T09:52:01;11.10;40.90
11239;DHT22;5677;48.488;13.436;2023-02-15T09:54:58;11.10;41.00
11239;DHT22;5677;48.488;13.436;2023-02-15T09:57:35;11.10;41.00
11239;DHT22;5677;48.488;13.436;2023-02-15T10:00:10;11.10;41.00
11239;DHT22;5677;48.488;13.436;2023-02-15T10:03:07;11.10;40.90
11239;DHT22;5677;48.488;13.436;2023-02-15T10:05:46;11.10;41.00
11239;DHT22;5677;48.488;13.436;2023-02-15T10:08:39;11.10;40.90
11239;DHT22;5677;48.488;13.436;2023-02-15T10:11:14;11.10;40.90
11239;DHT22;5677;48.488;13.436;2023-02-15T10:17:00;11.10;40.90
11239;DHT22;5677;48.488;13.436;2023-02-15T10:19:37;11.10;41.60
11239;DHT22;5677;48.488;13.436;2023-02-15T10:22:20;11.10;40.90
11239;DHT22;5677;48.488;13.436;2023-02-15T10:24:59;11.20;41.00
11239;DHT22;5677;48.488;13.436;2023-02-15T10:27:40;11.20;41.00
11239;DHT22;5677;48.488;13.436;2023-02-15T10:30:12;11.10;41.00
11239;DHT22;5677;48.488;13.436;2023-02-15T10:32:46;11.10;40.90
11239;DHT22;5677;48.488;13.436;2023-02-15T10:35:20;11.20;40.80
11239;DHT22;5677;48.488;13.436;2023-02-15T10:38:03;11.20;40.90
11239;DHT22;5677;48.488;13.436;2023-02-15T10:40:39;11.20;40.90
11239;DHT22;5677;48.488;13.436;2023-02-15T10:43:17;11.10;40.90
11239;DHT22;5677;48.488;13.436;2023-02-15T10:45:56;11.20;40.90
11239;DHT22;5677;48.488;13.436;2023-02-15T10:48:57;11.10;41.00
11239;DHT22;5677;48.488;13.436;2023-02-15T10:51:33;11.10;40.90
11239;DHT22;5677;48.488;13.436;2023-02-15T10:54:09;11.20;40.90
11239;DHT22;5677;48.488;13.436;2023-02-15T10:56:44;11.20;41.00
11239;DHT22;5677;48.488;13.436;2023-02-15T10:59:34;11.20;40.90
11239;DHT22;5677;48.488;13.436;2023-02-15T11:02:12;11.10;41.00
11239;DHT22;5677;48.488;13.436;2023-02-15T11:04:51;11.20;41.00
11239;DHT22;5677;48.488;13.436;2023-02-15T11:07:23;11.20;40.90
11239;DHT22;5677;48.488;13.436;2023-02-15T11:09:53;11.10;41.00
11239;DHT22;5677;48.488;13.436;2023-02-15T11:12:24;11.20;40.90
11239;DHT22;5677;48.488;13.436;2023-02-15T11:14:57;11.20;41.00
11239;DHT22;5677;48.488;13.436;2023-02-15T11:17:30;11.10;41.00
11239;DHT22;5677;48.488;13.436;2023-02-15T11:20:08;11.20;41.00
11239;DHT22;5677;48.488;13.436;2023-02-15T11:22:35;11.20;41.00
11239;DHT22;5677;48.488;13.436;2023-02-15T11:25:16;11.20;41.00
11239;DHT22;5677;48.488;13.436;2023-02-15T11:27:45;11.20;41.00
11239;DHT22;5677;48.488;13.436;2023-02-15T11:30:15;11.20;40.90
11239;DHT22;5677;48.488;13.436;2023-02-15T11:32:45;11.20;40.90
11239;DHT22;5677;48.488;13.436;2023-02-15T11:35:20;11.20;40.90
11239;DHT22;5677;48.488;13.436;2023-02-15T11:37:51;11.20;40.90
11239;DHT22;5677;48.488;13.436;2023-02-15T11:40:22;11.20;40.90
11239;DHT22;5677;48.488;13.436;2023-02-15T11:42:53;11.20;40.90
11239;DHT22;5677;48.488;13.436;2023-02-15T11:45:25;11.20;40.90
11239;DHT22;5677;48.488;13.436;2023-02-15T11:47:53;11.20;40.90
11239;DHT22;5677;48.488;13.436;2023-02-15T11:50:23;11.20;40.90
11239;DHT22;5677;48.488;13.436;2023-02-15T11:52:52;11.20;40.90
11239;DHT22;5677;48.488;13.436;2023-02-15T11:55:21;11.20;40.90
11239;DHT22;5677;48.488;13.436;2023-02-15T11:57:53;11.20;41.00
11239;DHT22;5677;48.488;13.436;2023-02-15T12:00:30;11.20;40.90
11239;DHT22;5677;48.488;13.436;2023-02-15T12:03:05;11.10;40.80
11239;DHT22;5677;48.488;13.436;2023-02-15T12:05:36;11.20;40.80
11239;DHT22;5677;48.488;13.436;2023-02-15T12:08:12;11.20;40.90
11239;DHT22;5677;48.488;13.436;2023-02-15T12:10:44;11.20;40.90
11239;DHT22;5677;48.488;13.436;2023-02-15T12:13:17;11.20;40.90
11239;DHT22;5677;48.488;13.436;2023-02-15T12:15:45;11.20;40.90
11239;DHT22;5677;48.488;13.436;2023-02-15T12:18:31;11.20;41.00
11239;DHT22;5677;48.488;13.436;2023-02-15T12:21:02;11.20;40.90
11239;DHT22;5677;48.488;13.436;2023-02-15T12:23:30;11.20;41.00
11239;DHT22;5677;48.488;13.436;2023-02-15T12:25:59;11.20;41.00
11239;DHT22;5677;48.488;13.436;2023-02-15T12:28:31;11.20;40.90
11239;DHT22;5677;48.488;13.436;2023-02-15T12:30:59;11.20;40.90
11239;DHT22;5677;48.488;13.436;2023-02-15T12:33:30;11.20;40.90
11239;DHT22;5677;48.488;13.436;2023-02-15T12:36:01;11.20;41.00
11239;DHT22;5677;48.488;13.436;2023-02-15T12:38:29;11.20;41.00
11239;DHT22;5677;48.488;13.436;2023-02-15T12:40:58;11.20;40.90
11239;DHT22;5677;48.488;13.436;2023-02-15T12:43:31;11.20;40.90
11239;DHT22;5677;48.488;13.436;2023-02-15T12:46:19;11.20;40.90
11239;DHT22;5677;48.488;13.436;2023-02-15T12:48:46;11.20;40.90
11239;DHT22;5677;48.488;13.436;2023-02-15T12:51:15;11.20;40.90
11239;DHT22;5677;48.488;13.436;2023-02-15T12:53:42;11.20;40.80
11239;DHT22;5677;48.488;13.436;2023-02-15T12:56:09;11.20;40.80
11239;DHT22;5677;48.488;13.436;2023-02-15T12:58:37;11.20;40.80
11239;DHT22;5677;48.488;13.436;2023-02-15T13:01:11;11.20;40.80
11239;DHT22;5677;48.488;13.436;2023-02-15T13:03:50;11.20;40.80
11239;DHT22;5677;48.488;13.436;2023-02-15T13:06:22;11.20;40.80
11239;DHT22;5677;48.488;13.436;2023-02-15T13:08:50;11.20;40.80
11239;DHT22;5677;48.488;13.436;2023-02-15T13:11:22;11.20;40.80
11239;DHT22;5677;48.488;13.436;2023-02-15T13:13:53;11.20;40.70
11239;DHT22;5677;48.488;13.436;2023-02-15T13:16:27;11.20;40.70
11239;DHT22;5677;48.488;13.436;2023-02-15T13:18:57;11.20;40.70
11239;DHT22;5677;48.488;13.436;2023-02-15T13:21:29;11.20;40.80
11239;DHT22;5677;48.488;13.436;2023-02-15T13:24:01;11.20;40.70
11239;DHT22;5677;48.488;13.436;2023-02-15T13:26:31;11.20;40.70
11239;DHT22;5677;48.488;13.436;2023-02-15T13:29:03;11.20;40.70
11239;DHT22;5677;48.488;13.436;2023-02-15T13:31:34;11.20;40.70
11239;DHT22;5677;48.488;13.436;2023-02-15T13:34:07;11.20;40.70
11239;DHT22;5677;48.488;13.436;2023-02-15T13:36:41;11.20;40.80
11239;DHT22;5677;48.488;13.436;2023-02-15T13:39:18;11.20;40.80
11239;DHT22;5677;48.488;13.436;2023-02-15T13:41:53;11.20;40.80
11239;DHT22;5677;48.488;13.436;2023-02-15T13:44:34;11.20;40.80
11239;DHT22;5677;48.488;13.436;2023-02-15T13:47:11;11.20;40.80
11239;DHT22;5677;48.488;13.436;2023-02-15T13:49:52;11.20;40.80
11239;DHT22;5677;48.488;13.436;2023-02-15T13:52:24;11.20;40.90
11239;DHT22;5677;48.488;13.436;2023-02-15T13:55:20;11.20;40.80
11239;DHT22;5677;48.488;13.436;2023-02-15T13:58:05;11.20;40.80
11239;DHT22;5677;48.488;13.436;2023-02-15T14:00:42;11.20;40.90
11239;DHT22;5677;48.488;13.436;2023-02-15T14:03:39;11.20;40.90
11239;DHT22;5677;48.488;13.436;2023-02-15T14:06:17;11.20;40.90
11239;DHT22;5677;48.488;13.436;2023-02-15T14:09:03;11.10;40.90
11239;DHT22;5677;48.488;13.436;2023-02-15T14:11:40;11.20;40.90
11239;DHT22;5677;48.488;13.436;2023-02-15T14:14:21;11.20;40.80
11239;DHT22;5677;48.488;13.436;2023-02-15T14:16:55;11.20;40.80
11239;DHT22;5677;48.488;13.436;2023-02-15T14:19:30;11.20;40.70
11239;DHT22;5677;48.488;13.436;2023-02-15T14:22:02;11.10;40.80
11239;DHT22;5677;48.488;13.436;2023-02-15T14:24:38;11.20;40.70
11239;DHT22;5677;48.488;13.436;2023-02-15T14:27:15;11.20;40.70
11239;DHT22;5677;48.488;13.436;2023-02-15T14:29:49;11.20;40.70
11239;DHT22;5677;48.488;13.436;2023-02-15T14:32:23;11.20;40.70
11239;DHT22;5677;48.488;13.436;2023-02-15T14:34:53;11.20;40.70
11239;DHT22;5677;48.488;13.436;2023-02-15T14:37:29;11.20;40.70
11239;DHT22;5677;48.488;13.436;2023-02-15T14:40:05;11.10;40.70
11239;DHT22;5677;48.488;13.436;2023-02-15T14:42:52;11.20;40.60
11239;DHT22;5677;48.488;13.436;2023-02-15T14:45:25;11.20;40.60
11239;DHT22;5677;48.488;13.436;2023-02-15T14:48:03;11.20;40.60
11239;DHT22;5677;48.488;13.436;2023-02-15T14:50:43;11.20;40.60
11239;DHT22;5677;48.488;13.436;2023-02-15T14:53:33;11.20;40.60
11239;DHT22;5677;48.488;13.436;2023-02-15T14:56:23;11.20;40.60
11239;DHT22;5677;48.488;13.436;2023-02-15T14:59:14;11.20;40.60
11239;DHT22;5677;48.488;13.436;2023-02-15T15:01:51;11.10;40.60
11239;DHT22;5677;48.488;13.436;2023-02-15T15:04:25;11.10;40.60
11239;DHT22;5677;48.488;13.436;2023-02-15T15:07:03;11.20;40.60
11239;DHT22;5677;48.488;13.436;2023-02-15T15:09:37;11.20;40.60
11239;DHT22;5677;48.488;13.436;2023-02-15T15:14:57;11.10;40.60
11239;DHT22;5677;48.488;13.436;2023-02-15T15:17:52;11.20;40.60
11239;DHT22;5677;48.488;13.436;2023-02-15T15:20:38;11.20;40.70
11239;DHT22;5677;48.488;13.436;2023-02-15T15:23:39;11.20;40.70
11239;DHT22;5677;48.488;13.436;2023-02-15T15:26:25;11.20;40.60
11239;DHT22;5677;48.488;13.436;2023-02-15T15:29:04;11.10;40.70
11239;DHT22;5677;48.488;13.436;2023-02-15T15:31:43;11.20;40.60
11239;DHT22;5677;48.488;13.436;2023-02-15T15:34:35;11.20;40.70
11239;DHT22;5677;48.488;13.436;2023-02-15T15:37:30;11.10;40.70
11239;DHT22;5677;48.488;13.436;2023-02-15T15:43:34;11.10;40.60
11239;DHT22;5677;48.488;13.436;2023-02-15T15:46:17;11.10;40.60
11239;DHT22;5677;48.488;13.436;2023-02-15T15:48:49;11.10;40.60
11239;DHT22;5677;48.488;13.436;2023-02-15T15:51:19;11.10;40.60
11239;DHT22;5677;48.488;13.436;2023-02-15T15:53:47;11.20;40.60
11239;DHT22;5677;48.488;13.436;2023-02-15T15:56:20;11.20;40.60
11239;DHT22;5677;48.488;13.436;2023-02-15T15:58:50;11.10;40.60
11239;DHT22;5677;48.488;13.436;2023-02-15T16:01:25;11.10;40.50
11239;DHT22;5677;48.488;13.436;2023-02-15T16:03:54;11.10;40.50
11239;DHT22;5677;48.488;13.436;2023-02-15T16:06:29;11.10;40.50
11239;DHT22;5677;48.488;13.436;2023-02-15T16:08:56;11.10;40.50
11239;DHT22;5677;48.488;13.436;2023-02-15T16:11:25;11.10;40.40
11239;DHT22;5677;48.488;13.436;2023-02-15T16:13:52;11.10;40.50